sensor_id;sensor_type;location;lat;lon;timestamp;P1;durP1;ratioP1;P2;durP2;ratioP2
12762;SDS011;6445;52.490;13.378;2023-06-22T00:00:56;17.08;;;15.50;;
12762;SDS011;6445;52.490;13.378;2023-06-22T00:03:22;10.50;;;9.50;;
12762;SDS011;6445;52.490;13.378;2023-06-22T00:05:49;11.18;;;8.90;;
12762;SDS011;6445;52.490;13.378;2023-06-22T00:08:15;9.52;;;8.63;;
12762;SDS011;6445;52.490;13.378;2023-06-22T00:10:41;10.02;;;8.75;;
12762;SDS011;6445;52.490;13.378;2023-06-22T00:13:07;8.80;;;7.93;;
12762;SDS011;6445;52.490;13.378;2023-06-22T00:15:33;10.52;;;8.70;;
12762;SDS011;6445;52.490;13.378;2023-06-22T00:17:59;9.60;;;8.65;;
12762;SDS011;6445;52.490;13.378;2023-06-22T00:20:25;9.15;;;8.35;;
12762;SDS011;6445;52.490;13.378;2023-06-22T00:22:54;9.02;;;8.13;;
12762;SDS011;6445;52.490;13.378;2023-06-22T00:25:20;10.82;;;8.93;;
12762;SDS011;6445;52.490;13.378;2023-06-22T00:27:45;13.27;;;8.95;;
12762;SDS011;6445;52.490;13.378;2023-06-22T00:30:11;10.15;;;9.10;;
12762;SDS011;6445;52.490;13.378;2023-06-22T00:32:36;10.80;;;9.60;;
12762;SDS011;6445;52.490;13.378;2023-06-22T00:35:01;11.25;;;9.23;;
12762;SDS011;6445;52.490;13.378;2023-06-22T00:37:27;9.88;;;8.90;;
12762;SDS011;6445;52.490;13.378;2023-06-22T00:39:54;10.13;;;9.23;;
12762;SDS011;6445;52.490;13.378;2023-06-22T00:42:20;10.60;;;9.45;;
12762;SDS011;6445;52.490;13.378;2023-06-22T00:44:45;10.50;;;8.75;;
12762;SDS011;6445;52.490;13.378;2023-06-22T00:47:11;10.43;;;9.30;;
12762;SDS011;6445;52.490;13.378;2023-06-22T00:49:38;9.65;;;8.75;;
12762;SDS011;6445;52.490;13.378;2023-06-22T00:52:03;10.75;;;9.02;;
12762;SDS011;6445;52.490;13.378;2023-06-22T00:54:34;10.38;;;9.38;;
12762;SDS011;6445;52.490;13.378;2023-06-22T00:57:01;14.55;;;9.65;;
12762;SDS011;6445;52.490;13.378;2023-06-22T00:59:26;10.27;;;9.18;;
12762;SDS011;6445;52.490;13.378;2023-06-22T01:01:52;10.80;;;9.23;;
12762;SDS011;6445;52.490;13.378;2023-06-22T01:04:17;10.73;;;8.82;;
12762;SDS011;6445;52.490;13.378;2023-06-22T01:06:50;10.05;;;9.05;;
12762;SDS011;6445;52.490;13.378;2023-06-22T01:09:29;10.65;;;9.35;;
12762;SDS011;6445;52.490;13.378;2023-06-22T01:12:00;10.85;;;9.70;;
12762;SDS011;6445;52.490;13.378;2023-06-22T01:14:31;10.02;;;9.02;;
12762;SDS011;6445;52.490;13.378;2023-06-22T01:17:03;9.93;;;9.02;;
12762;SDS011;6445;52.490;13.378;2023-06-22T01:22:21;14.73;;;10.02;;
12762;SDS011;6445;52.490;13.378;2023-06-22T01:24:51;11.00;;;9.60;;
12762;SDS011;6445;52.490;13.378;2023-06-22T01:30:10;14.00;;;10.32;;
12762;SDS011;6445;52.490;13.378;2023-06-22T01:32:38;15.68;;;10.80;;
12762;SDS011;6445;52.490;13.378;2023-06-22T01:35:06;11.23;;;10.13;;
12762;SDS011;6445;52.490;13.378;2023-06-22T01:37:33;14.18;;;12.05;;
12762;SDS011;6445;52.490;13.378;2023-06-22T01:40:01;13.00;;;11.70;;
12762;SDS011;6445;52.490;13.378;2023-06-22T01:42:29;12.25;;;11.02;;
12762;SDS011;6445;52.490;13.378;2023-06-22T01:44:55;12.85;;;11.63;;
12762;SDS011;6445;52.490;13.378;2023-06-22T01:47:21;12.80;;;11.50;;
12762;SDS011;6445;52.490;13.378;2023-06-22T01:49:47;12.88;;;11.57;;
12762;SDS011;6445;52.490;13.378;2023-06-22T01:52:13;13.43;;;12.02;;
12762;SDS011;6445;52.490;13.378;2023-06-22T01:54:39;13.90;;;11.70;;
12762;SDS011;6445;52.490;13.378;2023-06-22T01:57:05;14.88;;;13.38;;
12762;SDS011;6445;52.490;13.378;2023-06-22T02:02:23;13.93;;;12.63;;
12762;SDS011;6445;52.490;13.378;2023-06-22T02:04:59;15.30;;;13.75;;
12762;SDS011;6445;52.490;13.378;2023-06-22T02:07:29;14.48;;;13.00;;
12762;SDS011;6445;52.490;13.378;2023-06-22T02:09:58;14.52;;;12.70;;
12762;SDS011;6445;52.490;13.378;2023-06-22T02:12:26;13.63;;;12.10;;
12762;SDS011;6445;52.490;13.378;2023-06-22T02:14:53;15.60;;;12.90;;
12762;SDS011;6445;52.490;13.378;2023-06-22T02:17:19;13.93;;;12.43;;
12762;SDS011;6445;52.490;13.378;2023-06-22T02:19:44;14.38;;;12.93;;
12762;SDS011;6445;52.490;13.378;2023-06-22T02:22:10;14.90;;;13.43;;
12762;SDS011;6445;52.490;13.378;2023-06-22T02:24:35;14.18;;;12.40;;
12762;SDS011;6445;52.490;13.378;2023-06-22T02:27:01;13.65;;;12.30;;
12762;SDS011;6445;52.490;13.378;2023-06-22T02:29:27;14.40;;;13.07;;
12762;SDS011;6445;52.490;13.378;2023-06-22T02:31:53;14.57;;;12.82;;
12762;SDS011;6445;52.490;13.378;2023-06-22T02:34:19;15.32;;;13.30;;
12762;SDS011;6445;52.490;13.378;2023-06-22T02:36:45;15.48;;;13.55;;
12762;SDS011;6445;52.490;13.378;2023-06-22T02:39:16;14.02;;;12.68;;
12762;SDS011;6445;52.490;13.378;2023-06-22T02:41:43;14.52;;;13.05;;
12762;SDS011;6445;52.490;13.378;2023-06-22T02:44:08;15.13;;;13.63;;
12762;SDS011;6445;52.490;13.378;2023-06-22T02:46:34;14.50;;;13.10;;
12762;SDS011;6445;52.490;13.378;2023-06-22T02:49:00;15.18;;;13.63;;
12762;SDS011;6445;52.490;13.378;2023-06-22T02:51:26;13.60;;;12.30;;
12762;SDS011;6445;52.490;13.378;2023-06-22T02:53:51;14.63;;;12.85;;
12762;SDS011;6445;52.490;13.378;2023-06-22T02:56:17;14.48;;;12.98;;
12762;SDS011;6445;52.490;13.378;2023-06-22T02:58:42;15.68;;;14.02;;
12762;SDS011;6445;52.490;13.378;2023-06-22T03:01:08;17.10;;;14.32;;
12762;SDS011;6445;52.490;13.378;2023-06-22T03:03:35;16.38;;;14.68;;
12762;SDS011;6445;52.490;13.378;2023-06-22T03:06:00;16.90;;;14.52;;
12762;SDS011;6445;52.490;13.378;2023-06-22T03:08:28;16.33;;;14.07;;
12762;SDS011;6445;52.490;13.378;2023-06-22T03:10:53;16.08;;;14.18;;
12762;SDS011;6445;52.490;13.378;2023-06-22T03:13:19;16.02;;;14.43;;
12762;SDS011;6445;52.490;13.378;2023-06-22T03:15:44;17.73;;;14.18;;
12762;SDS011;6445;52.490;13.378;2023-06-22T03:18:10;15.65;;;13.93;;
12762;SDS011;6445;52.490;13.378;2023-06-22T03:20:36;17.98;;;13.90;;
12762;SDS011;6445;52.490;13.378;2023-06-22T03:23:01;16.23;;;14.18;;
12762;SDS011;6445;52.490;13.378;2023-06-22T03:25:26;15.07;;;13.20;;
12762;SDS011;6445;52.490;13.378;2023-06-22T03:27:51;13.90;;;12.40;;
12762;SDS011;6445;52.490;13.378;2023-06-22T03:30:17;17.10;;;13.00;;
12762;SDS011;6445;52.490;13.378;2023-06-22T03:32:42;13.93;;;12.43;;
12762;SDS011;6445;52.490;13.378;2023-06-22T03:35:08;15.65;;;12.55;;
12762;SDS011;6445;52.490;13.378;2023-06-22T03:37:33;14.60;;;11.80;;
12762;SDS011;6445;52.490;13.378;2023-06-22T03:39:59;13.05;;;11.32;;
12762;SDS011;6445;52.490;13.378;2023-06-22T03:42:24;12.20;;;10.90;;
12762;SDS011;6445;52.490;13.378;2023-06-22T03:44:49;12.50;;;11.20;;
12762;SDS011;6445;52.490;13.378;2023-06-22T03:47:15;12.27;;;11.07;;
12762;SDS011;6445;52.490;13.378;2023-06-22T03:49:40;12.43;;;10.52;;
12762;SDS011;6445;52.490;13.378;2023-06-22T03:52:05;12.27;;;10.30;;
12762;SDS011;6445;52.490;13.378;2023-06-22T03:54:30;15.13;;;10.50;;
12762;SDS011;6445;52.490;13.378;2023-06-22T03:56:56;11.68;;;10.48;;
12762;SDS011;6445;52.490;13.378;2023-06-22T03:59:22;12.27;;;10.55;;
12762;SDS011;6445;52.490;13.378;2023-06-22T04:01:48;9.95;;;8.88;;
12762;SDS011;6445;52.490;13.378;2023-06-22T04:04:13;10.60;;;9.50;;
12762;SDS011;6445;52.490;13.378;2023-06-22T04:06:39;12.43;;;10.65;;
12762;SDS011;6445;52.490;13.378;2023-06-22T04:09:05;10.48;;;9.27;;
12762;SDS011;6445;52.490;13.378;2023-06-22T04:11:31;11.07;;;9.98;;
12762;SDS011;6445;52.490;13.378;2023-06-22T04:13:56;10.45;;;9.45;;
12762;SDS011;6445;52.490;13.378;2023-06-22T04:16:22;12.65;;;10.13;;
12762;SDS011;6445;52.490;13.378;2023-06-22T04:18:47;11.43;;;9.90;;
12762;SDS011;6445;52.490;13.378;2023-06-22T04:21:13;11.43;;;8.35;;
12762;SDS011;6445;52.490;13.378;2023-06-22T04:23:38;11.13;;;7.95;;
12762;SDS011;6445;52.490;13.378;2023-06-22T04:26:04;11.57;;;8.20;;
12762;SDS011;6445;52.490;13.378;2023-06-22T04:28:29;7.65;;;6.95;;
12762;SDS011;6445;52.490;13.378;2023-06-22T04:30:55;7.53;;;6.43;;
12762;SDS011;6445;52.490;13.378;2023-06-22T04:33:23;9.98;;;7.50;;
12762;SDS011;6445;52.490;13.378;2023-06-22T04:35:48;9.73;;;6.95;;
12762;SDS011;6445;52.490;13.378;2023-06-22T04:38:13;8.68;;;7.50;;
12762;SDS011;6445;52.490;13.378;2023-06-22T04:40:39;11.52;;;8.30;;
12762;SDS011;6445;52.490;13.378;2023-06-22T04:43:05;7.80;;;7.03;;
12762;SDS011;6445;52.490;13.378;2023-06-22T04:45:31;12.13;;;8.18;;
12762;SDS011;6445;52.490;13.378;2023-06-22T04:47:57;10.85;;;8.48;;
12762;SDS011;6445;52.490;13.378;2023-06-22T04:50:22;9.70;;;7.70;;
12762;SDS011;6445;52.490;13.378;2023-06-22T04:52:48;10.50;;;8.05;;
12762;SDS011;6445;52.490;13.378;2023-06-22T04:55:14;9.73;;;7.68;;
12762;SDS011;6445;52.490;13.378;2023-06-22T04:57:43;8.57;;;7.65;;
12762;SDS011;6445;52.490;13.378;2023-06-22T05:00:14;11.50;;;7.35;;
12762;SDS011;6445;52.490;13.378;2023-06-22T05:02:45;8.30;;;7.38;;
12762;SDS011;6445;52.490;13.378;2023-06-22T05:05:11;10.63;;;6.93;;
12762;SDS011;6445;52.490;13.378;2023-06-22T05:07:42;7.45;;;6.65;;
12762;SDS011;6445;52.490;13.378;2023-06-22T05:10:11;8.13;;;6.65;;
12762;SDS011;6445;52.490;13.378;2023-06-22T05:12:37;9.55;;;6.28;;
12762;SDS011;6445;52.490;13.378;2023-06-22T05:15:03;7.50;;;5.60;;
12762;SDS011;6445;52.490;13.378;2023-06-22T05:17:29;7.57;;;5.95;;
12762;SDS011;6445;52.490;13.378;2023-06-22T05:19:54;10.57;;;6.65;;
12762;SDS011;6445;52.490;13.378;2023-06-22T05:22:20;8.38;;;6.55;;
12762;SDS011;6445;52.490;13.378;2023-06-22T05:24:46;9.90;;;6.95;;
12762;SDS011;6445;52.490;13.378;2023-06-22T05:27:12;7.57;;;6.22;;
12762;SDS011;6445;52.490;13.378;2023-06-22T05:29:37;11.60;;;6.75;;
12762;SDS011;6445;52.490;13.378;2023-06-22T05:32:03;7.65;;;6.63;;
12762;SDS011;6445;52.490;13.378;2023-06-22T05:34:28;8.88;;;7.15;;
12762;SDS011;6445;52.490;13.378;2023-06-22T05:36:53;10.05;;;6.50;;
12762;SDS011;6445;52.490;13.378;2023-06-22T05:39:19;9.00;;;6.35;;
12762;SDS011;6445;52.490;13.378;2023-06-22T05:41:44;7.35;;;6.45;;
12762;SDS011;6445;52.490;13.378;2023-06-22T05:44:10;8.35;;;6.47;;
12762;SDS011;6445;52.490;13.378;2023-06-22T05:46:35;7.55;;;6.05;;
12762;SDS011;6445;52.490;13.378;2023-06-22T05:49:01;9.48;;;6.72;;
12762;SDS011;6445;52.490;13.378;2023-06-22T05:51:26;10.63;;;7.45;;
12762;SDS011;6445;52.490;13.378;2023-06-22T05:53:51;9.85;;;6.75;;
12762;SDS011;6445;52.490;13.378;2023-06-22T05:56:16;10.20;;;6.05;;
12762;SDS011;6445;52.490;13.378;2023-06-22T05:58:42;7.88;;;6.25;;
12762;SDS011;6445;52.490;13.378;2023-06-22T06:01:07;7.13;;;6.40;;
12762;SDS011;6445;52.490;13.378;2023-06-22T06:03:32;9.00;;;6.55;;
12762;SDS011;6445;52.490;13.378;2023-06-22T06:05:57;8.43;;;6.43;;
12762;SDS011;6445;52.490;13.378;2023-06-22T06:08:23;7.22;;;6.22;;
12762;SDS011;6445;52.490;13.378;2023-06-22T06:10:48;8.27;;;6.13;;
12762;SDS011;6445;52.490;13.378;2023-06-22T06:13:13;6.53;;;5.82;;
12762;SDS011;6445;52.490;13.378;2023-06-22T06:15:38;6.00;;;5.40;;
12762;SDS011;6445;52.490;13.378;2023-06-22T06:18:04;7.07;;;5.75;;
12762;SDS011;6445;52.490;13.378;2023-06-22T06:20:30;9.63;;;5.55;;
12762;SDS011;6445;52.490;13.378;2023-06-22T06:22:56;6.70;;;5.30;;
12762;SDS011;6445;52.490;13.378;2023-06-22T06:25:22;6.25;;;5.65;;
12762;SDS011;6445;52.490;13.378;2023-06-22T06:27:48;7.47;;;4.95;;
12762;SDS011;6445;52.490;13.378;2023-06-22T06:30:15;7.00;;;4.97;;
12762;SDS011;6445;52.490;13.378;2023-06-22T06:32:42;7.90;;;5.18;;
12762;SDS011;6445;52.490;13.378;2023-06-22T06:35:10;8.90;;;4.85;;
12762;SDS011;6445;52.490;13.378;2023-06-22T06:37:39;7.82;;;4.80;;
12762;SDS011;6445;52.490;13.378;2023-06-22T06:40:06;5.05;;;4.55;;
12762;SDS011;6445;52.490;13.378;2023-06-22T06:42:35;6.20;;;4.78;;
12762;SDS011;6445;52.490;13.378;2023-06-22T06:45:02;6.25;;;4.28;;
12762;SDS011;6445;52.490;13.378;2023-06-22T06:47:27;7.43;;;4.25;;
12762;SDS011;6445;52.490;13.378;2023-06-22T06:49:53;5.43;;;4.30;;
12762;SDS011;6445;52.490;13.378;2023-06-22T06:52:18;5.07;;;4.45;;
12762;SDS011;6445;52.490;13.378;2023-06-22T06:54:44;6.03;;;4.78;;
12762;SDS011;6445;52.490;13.378;2023-06-22T06:57:09;6.00;;;4.25;;
12762;SDS011;6445;52.490;13.378;2023-06-22T06:59:35;8.82;;;4.63;;
12762;SDS011;6445;52.490;13.378;2023-06-22T07:02:01;5.82;;;3.83;;
12762;SDS011;6445;52.490;13.378;2023-06-22T07:04:26;5.70;;;4.82;;
12762;SDS011;6445;52.490;13.378;2023-06-22T07:06:52;5.15;;;3.80;;
12762;SDS011;6445;52.490;13.378;2023-06-22T07:09:17;5.18;;;4.03;;
12762;SDS011;6445;52.490;13.378;2023-06-22T07:11:43;5.10;;;4.15;;
12762;SDS011;6445;52.490;13.378;2023-06-22T07:14:08;5.82;;;3.67;;
12762;SDS011;6445;52.490;13.378;2023-06-22T07:16:34;4.03;;;3.63;;
12762;SDS011;6445;52.490;13.378;2023-06-22T07:18:59;4.03;;;3.50;;
12762;SDS011;6445;52.490;13.378;2023-06-22T07:21:25;5.93;;;3.45;;
12762;SDS011;6445;52.490;13.378;2023-06-22T07:23:50;5.27;;;3.97;;
12762;SDS011;6445;52.490;13.378;2023-06-22T07:26:15;3.80;;;3.40;;
12762;SDS011;6445;52.490;13.378;2023-06-22T07:28:41;6.55;;;3.90;;
12762;SDS011;6445;52.490;13.378;2023-06-22T07:31:07;4.67;;;3.37;;
12762;SDS011;6445;52.490;13.378;2023-06-22T07:33:32;5.30;;;3.92;;
12762;SDS011;6445;52.490;13.378;2023-06-22T07:35:57;3.80;;;3.47;;
12762;SDS011;6445;52.490;13.378;2023-06-22T07:38:22;6.93;;;3.75;;
12762;SDS011;6445;52.490;13.378;2023-06-22T07:40:48;5.03;;;2.90;;
12762;SDS011;6445;52.490;13.378;2023-06-22T07:43:13;5.10;;;3.40;;
12762;SDS011;6445;52.490;13.378;2023-06-22T07:45:38;5.47;;;3.10;;
12762;SDS011;6445;52.490;13.378;2023-06-22T07:48:05;3.55;;;2.83;;
12762;SDS011;6445;52.490;13.378;2023-06-22T07:50:31;3.55;;;3.17;;
12762;SDS011;6445;52.490;13.378;2023-06-22T07:52:56;4.07;;;3.10;;
12762;SDS011;6445;52.490;13.378;2023-06-22T07:55:21;5.15;;;2.90;;
12762;SDS011;6445;52.490;13.378;2023-06-22T07:57:47;8.43;;;3.10;;
12762;SDS011;6445;52.490;13.378;2023-06-22T08:00:14;4.50;;;3.30;;
12762;SDS011;6445;52.490;13.378;2023-06-22T08:02:40;4.57;;;2.90;;
12762;SDS011;6445;52.490;13.378;2023-06-22T08:05:07;3.10;;;2.78;;
12762;SDS011;6445;52.490;13.378;2023-06-22T08:07:34;4.38;;;3.15;;
12762;SDS011;6445;52.490;13.378;2023-06-22T08:10:04;4.53;;;3.13;;
12762;SDS011;6445;52.490;13.378;2023-06-22T08:12:30;4.32;;;3.10;;
12762;SDS011;6445;52.490;13.378;2023-06-22T08:14:55;4.07;;;3.10;;
12762;SDS011;6445;52.490;13.378;2023-06-22T08:17:21;3.25;;;2.95;;
12762;SDS011;6445;52.490;13.378;2023-06-22T08:19:47;3.00;;;2.70;;
12762;SDS011;6445;52.490;13.378;2023-06-22T08:22:12;5.05;;;3.20;;
12762;SDS011;6445;52.490;13.378;2023-06-22T08:24:38;3.70;;;2.90;;
12762;SDS011;6445;52.490;13.378;2023-06-22T08:27:03;5.15;;;2.88;;
12762;SDS011;6445;52.490;13.378;2023-06-22T08:29:33;5.15;;;3.15;;
12762;SDS011;6445;52.490;13.378;2023-06-22T08:31:59;3.83;;;3.28;;
12762;SDS011;6445;52.490;13.378;2023-06-22T08:34:24;5.65;;;3.22;;
12762;SDS011;6445;52.490;13.378;2023-06-22T08:36:51;4.40;;;3.47;;
12762;SDS011;6445;52.490;13.378;2023-06-22T08:39:18;4.85;;;3.45;;
12762;SDS011;6445;52.490;13.378;2023-06-22T08:41:47;4.30;;;3.15;;
12762;SDS011;6445;52.490;13.378;2023-06-22T08:44:12;5.50;;;3.25;;
12762;SDS011;6445;52.490;13.378;2023-06-22T08:46:38;4.03;;;3.58;;
12762;SDS011;6445;52.490;13.378;2023-06-22T08:49:05;5.07;;;3.75;;
12762;SDS011;6445;52.490;13.378;2023-06-22T08:51:31;4.18;;;3.47;;
12762;SDS011;6445;52.490;13.378;2023-06-22T08:53:56;8.48;;;4.20;;
12762;SDS011;6445;52.490;13.378;2023-06-22T08:56:21;4.97;;;3.45;;
12762;SDS011;6445;52.490;13.378;2023-06-22T08:58:46;6.78;;;4.05;;
12762;SDS011;6445;52.490;13.378;2023-06-22T09:01:12;6.15;;;3.90;;
12762;SDS011;6445;52.490;13.378;2023-06-22T09:03:37;4.22;;;3.70;;
12762;SDS011;6445;52.490;13.378;2023-06-22T09:06:02;4.85;;;3.75;;
12762;SDS011;6445;52.490;13.378;2023-06-22T09:08:28;4.18;;;3.35;;
12762;SDS011;6445;52.490;13.378;2023-06-22T09:10:53;6.07;;;3.60;;
12762;SDS011;6445;52.490;13.378;2023-06-22T09:13:18;4.45;;;3.28;;
12762;SDS011;6445;52.490;13.378;2023-06-22T09:15:44;4.80;;;3.60;;
12762;SDS011;6445;52.490;13.378;2023-06-22T09:18:12;3.88;;;3.03;;
12762;SDS011;6445;52.490;13.378;2023-06-22T09:20:38;4.88;;;3.42;;
12762;SDS011;6445;52.490;13.378;2023-06-22T09:23:03;3.35;;;3.03;;
12762;SDS011;6445;52.490;13.378;2023-06-22T09:25:29;4.20;;;3.33;;
12762;SDS011;6445;52.490;13.378;2023-06-22T09:27:54;3.47;;;3.05;;
12762;SDS011;6445;52.490;13.378;2023-06-22T09:30:19;5.50;;;3.40;;
12762;SDS011;6445;52.490;13.378;2023-06-22T09:32:44;3.58;;;3.28;;
12762;SDS011;6445;52.490;13.378;2023-06-22T09:35:10;4.07;;;3.05;;
12762;SDS011;6445;52.490;13.378;2023-06-22T09:37:37;3.28;;;2.97;;
12762;SDS011;6445;52.490;13.378;2023-06-22T09:40:03;5.40;;;3.13;;
12762;SDS011;6445;52.490;13.378;2023-06-22T09:42:33;4.05;;;3.25;;
12762;SDS011;6445;52.490;13.378;2023-06-22T09:44:59;3.55;;;3.13;;
12762;SDS011;6445;52.490;13.378;2023-06-22T09:47:24;3.75;;;3.35;;
12762;SDS011;6445;52.490;13.378;2023-06-22T09:49:50;3.55;;;3.25;;
12762;SDS011;6445;52.490;13.378;2023-06-22T09:52:15;4.22;;;3.63;;
12762;SDS011;6445;52.490;13.378;2023-06-22T09:54:40;3.60;;;3.30;;
12762;SDS011;6445;52.490;13.378;2023-06-22T09:57:06;4.00;;;3.60;;
12762;SDS011;6445;52.490;13.378;2023-06-22T09:59:31;4.30;;;3.90;;
12762;SDS011;6445;52.490;13.378;2023-06-22T10:01:56;5.20;;;3.80;;
12762;SDS011;6445;52.490;13.378;2023-06-22T10:04:22;5.32;;;3.60;;
12762;SDS011;6445;52.490;13.378;2023-06-22T10:06:47;5.10;;;3.90;;
12762;SDS011;6445;52.490;13.378;2023-06-22T10:09:12;4.53;;;3.80;;
12762;SDS011;6445;52.490;13.378;2023-06-22T10:11:37;4.65;;;3.45;;
12762;SDS011;6445;52.490;13.378;2023-06-22T10:14:03;4.28;;;3.85;;
12762;SDS011;6445;52.490;13.378;2023-06-22T10:16:32;3.83;;;3.42;;
12762;SDS011;6445;52.490;13.378;2023-06-22T10:18:58;4.40;;;3.60;;
12762;SDS011;6445;52.490;13.378;2023-06-22T10:21:23;5.60;;;3.70;;
12762;SDS011;6445;52.490;13.378;2023-06-22T10:23:48;4.22;;;3.83;;
12762;SDS011;6445;52.490;13.378;2023-06-22T10:26:14;4.13;;;3.72;;
12762;SDS011;6445;52.490;13.378;2023-06-22T10:28:39;4.53;;;3.58;;
12762;SDS011;6445;52.490;13.378;2023-06-22T10:31:04;4.10;;;3.60;;
12762;SDS011;6445;52.490;13.378;2023-06-22T10:33:29;5.18;;;3.85;;
12762;SDS011;6445;52.490;13.378;2023-06-22T10:35:55;5.47;;;4.20;;
12762;SDS011;6445;52.490;13.378;2023-06-22T10:38:20;5.72;;;3.90;;
12762;SDS011;6445;52.490;13.378;2023-06-22T10:40:45;5.10;;;4.03;;
12762;SDS011;6445;52.490;13.378;2023-06-22T10:43:11;4.30;;;3.45;;
12762;SDS011;6445;52.490;13.378;2023-06-22T10:45:36;4.53;;;3.70;;
12762;SDS011;6445;52.490;13.378;2023-06-22T10:48:01;5.00;;;3.33;;
12762;SDS011;6445;52.490;13.378;2023-06-22T10:50:27;4.05;;;3.47;;
12762;SDS011;6445;52.490;13.378;2023-06-22T10:52:53;5.32;;;3.90;;
12762;SDS011;6445;52.490;13.378;2023-06-22T10:55:19;4.10;;;3.50;;
12762;SDS011;6445;52.490;13.378;2023-06-22T10:57:44;4.00;;;3.60;;
12762;SDS011;6445;52.490;13.378;2023-06-22T11:00:12;4.10;;;3.63;;
12762;SDS011;6445;52.490;13.378;2023-06-22T11:02:38;4.20;;;3.33;;
12762;SDS011;6445;52.490;13.378;2023-06-22T11:05:04;4.28;;;3.42;;
12762;SDS011;6445;52.490;13.378;2023-06-22T11:07:29;4.05;;;3.60;;
12762;SDS011;6445;52.490;13.378;2023-06-22T11:09:55;4.85;;;4.15;;
12762;SDS011;6445;52.490;13.378;2023-06-22T11:12:20;3.75;;;3.45;;
12762;SDS011;6445;52.490;13.378;2023-06-22T11:14:45;4.57;;;4.18;;
12762;SDS011;6445;52.490;13.378;2023-06-22T11:17:11;6.43;;;3.83;;
12762;SDS011;6445;52.490;13.378;2023-06-22T11:19:36;5.30;;;3.73;;
12762;SDS011;6445;52.490;13.378;2023-06-22T11:22:01;4.50;;;4.10;;
12762;SDS011;6445;52.490;13.378;2023-06-22T11:24:27;5.88;;;4.15;;
12762;SDS011;6445;52.490;13.378;2023-06-22T11:26:52;4.03;;;3.72;;
12762;SDS011;6445;52.490;13.378;2023-06-22T11:29:17;4.38;;;3.85;;
12762;SDS011;6445;52.490;13.378;2023-06-22T11:31:43;5.00;;;3.80;;
12762;SDS011;6445;52.490;13.378;2023-06-22T11:34:08;4.13;;;3.72;;
12762;SDS011;6445;52.490;13.378;2023-06-22T11:36:33;5.43;;;3.58;;
12762;SDS011;6445;52.490;13.378;2023-06-22T11:39:00;4.80;;;3.65;;
12762;SDS011;6445;52.490;13.378;2023-06-22T11:41:25;4.40;;;3.40;;
12762;SDS011;6445;52.490;13.378;2023-06-22T11:43:51;4.78;;;4.07;;
12762;SDS011;6445;52.490;13.378;2023-06-22T11:46:16;4.93;;;3.45;;
12762;SDS011;6445;52.490;13.378;2023-06-22T11:48:41;3.47;;;3.17;;
12762;SDS011;6445;52.490;13.378;2023-06-22T11:51:07;5.40;;;3.67;;
12762;SDS011;6445;52.490;13.378;2023-06-22T11:53:33;4.13;;;3.72;;
12762;SDS011;6445;52.490;13.378;2023-06-22T11:55:59;3.95;;;3.65;;
12762;SDS011;6445;52.490;13.378;2023-06-22T11:58:24;4.78;;;3.58;;
12762;SDS011;6445;52.490;13.378;2023-06-22T12:00:50;4.00;;;3.55;;
12762;SDS011;6445;52.490;13.378;2023-06-22T12:03:16;8.32;;;3.90;;
12762;SDS011;6445;52.490;13.378;2023-06-22T12:05:42;5.35;;;3.85;;
12762;SDS011;6445;52.490;13.378;2023-06-22T12:08:07;3.80;;;3.40;;
12762;SDS011;6445;52.490;13.378;2023-06-22T12:10:32;4.20;;;3.80;;
12762;SDS011;6445;52.490;13.378;2023-06-22T12:12:58;5.57;;;3.80;;
12762;SDS011;6445;52.490;13.378;2023-06-22T12:15:24;4.55;;;4.15;;
12762;SDS011;6445;52.490;13.378;2023-06-22T12:17:50;6.22;;;4.38;;
12762;SDS011;6445;52.490;13.378;2023-06-22T12:20:15;4.55;;;4.15;;
12762;SDS011;6445;52.490;13.378;2023-06-22T12:22:41;5.28;;;3.95;;
12762;SDS011;6445;52.490;13.378;2023-06-22T12:25:06;4.47;;;4.07;;
12762;SDS011;6445;52.490;13.378;2023-06-22T12:27:32;4.63;;;3.97;;
12762;SDS011;6445;52.490;13.378;2023-06-22T12:29:58;5.25;;;3.75;;
12762;SDS011;6445;52.490;13.378;2023-06-22T12:32:23;4.43;;;3.92;;
12762;SDS011;6445;52.490;13.378;2023-06-22T12:34:49;4.40;;;3.70;;
12762;SDS011;6445;52.490;13.378;2023-06-22T12:37:14;4.43;;;4.00;;
12762;SDS011;6445;52.490;13.378;2023-06-22T12:39:42;5.77;;;4.33;;
12762;SDS011;6445;52.490;13.378;2023-06-22T12:42:08;5.47;;;4.07;;
12762;SDS011;6445;52.490;13.378;2023-06-22T12:44:34;5.55;;;4.00;;
12762;SDS011;6445;52.490;13.378;2023-06-22T12:46:59;6.35;;;5.75;;
12762;SDS011;6445;52.490;13.378;2023-06-22T12:49:25;5.70;;;4.05;;
12762;SDS011;6445;52.490;13.378;2023-06-22T12:51:50;4.93;;;4.45;;
12762;SDS011;6445;52.490;13.378;2023-06-22T12:54:15;5.93;;;4.30;;
12762;SDS011;6445;52.490;13.378;2023-06-22T12:56:41;4.93;;;4.43;;
12762;SDS011;6445;52.490;13.378;2023-06-22T12:59:08;4.88;;;4.07;;
12762;SDS011;6445;52.490;13.378;2023-06-22T13:01:34;5.00;;;4.50;;
12762;SDS011;6445;52.490;13.378;2023-06-22T13:03:59;6.50;;;4.93;;
12762;SDS011;6445;52.490;13.378;2023-06-22T13:06:24;5.10;;;4.60;;
12762;SDS011;6445;52.490;13.378;2023-06-22T13:08:49;5.22;;;4.72;;
12762;SDS011;6445;52.490;13.378;2023-06-22T13:11:15;6.30;;;4.80;;
12762;SDS011;6445;52.490;13.378;2023-06-22T13:13:40;6.65;;;4.32;;
12762;SDS011;6445;52.490;13.378;2023-06-22T13:16:06;4.88;;;4.47;;
12762;SDS011;6445;52.490;13.378;2023-06-22T13:18:32;4.47;;;4.07;;
12762;SDS011;6445;52.490;13.378;2023-06-22T13:20:59;4.60;;;4.20;;
12762;SDS011;6445;52.490;13.378;2023-06-22T13:23:25;5.50;;;4.22;;
12762;SDS011;6445;52.490;13.378;2023-06-22T13:25:50;5.18;;;4.15;;
12762;SDS011;6445;52.490;13.378;2023-06-22T13:28:15;5.45;;;4.18;;
12762;SDS011;6445;52.490;13.378;2023-06-22T13:30:41;5.18;;;4.57;;
12762;SDS011;6445;52.490;13.378;2023-06-22T13:33:06;5.20;;;4.70;;
12762;SDS011;6445;52.490;13.378;2023-06-22T13:35:32;13.43;;;5.70;;
12762;SDS011;6445;52.490;13.378;2023-06-22T13:37:57;5.43;;;4.30;;
12762;SDS011;6445;52.490;13.378;2023-06-22T13:40:22;4.77;;;4.37;;
12762;SDS011;6445;52.490;13.378;2023-06-22T13:42:48;8.65;;;5.05;;
12762;SDS011;6445;52.490;13.378;2023-06-22T13:45:13;5.50;;;5.00;;
12762;SDS011;6445;52.490;13.378;2023-06-22T13:47:41;5.40;;;4.65;;
12762;SDS011;6445;52.490;13.378;2023-06-22T13:50:06;5.13;;;4.40;;
12762;SDS011;6445;52.490;13.378;2023-06-22T13:52:32;6.03;;;4.65;;
12762;SDS011;6445;52.490;13.378;2023-06-22T13:54:57;5.27;;;4.80;;
12762;SDS011;6445;52.490;13.378;2023-06-22T13:57:22;6.05;;;5.07;;
12762;SDS011;6445;52.490;13.378;2023-06-22T13:59:48;8.25;;;4.97;;
12762;SDS011;6445;52.490;13.378;2023-06-22T14:02:13;5.78;;;5.18;;
12762;SDS011;6445;52.490;13.378;2023-06-22T14:04:38;5.72;;;4.72;;
12762;SDS011;6445;52.490;13.378;2023-06-22T14:07:04;5.88;;;4.80;;
12762;SDS011;6445;52.490;13.378;2023-06-22T14:09:29;4.85;;;4.45;;
12762;SDS011;6445;52.490;13.378;2023-06-22T14:11:54;5.57;;;4.93;;
12762;SDS011;6445;52.490;13.378;2023-06-22T14:14:20;8.32;;;5.00;;
12762;SDS011;6445;52.490;13.378;2023-06-22T14:16:46;7.50;;;4.53;;
12762;SDS011;6445;52.490;13.378;2023-06-22T14:19:12;5.00;;;4.53;;
12762;SDS011;6445;52.490;13.378;2023-06-22T14:21:38;5.00;;;4.50;;
12762;SDS011;6445;52.490;13.378;2023-06-22T14:24:03;5.20;;;4.73;;
12762;SDS011;6445;52.490;13.378;2023-06-22T14:26:28;5.20;;;4.70;;
12762;SDS011;6445;52.490;13.378;2023-06-22T14:28:53;5.07;;;4.57;;
12762;SDS011;6445;52.490;13.378;2023-06-22T14:31:19;4.88;;;4.45;;
12762;SDS011;6445;52.490;13.378;2023-06-22T14:33:48;5.18;;;4.68;;
12762;SDS011;6445;52.490;13.378;2023-06-22T14:36:14;4.80;;;4.40;;
12762;SDS011;6445;52.490;13.378;2023-06-22T14:38:40;4.78;;;4.35;;
12762;SDS011;6445;52.490;13.378;2023-06-22T14:41:05;5.57;;;4.35;;